sensor_id;sensor_type;location;lat;lon;timestamp;pressure;altitude;pressure_sealevel;temperature;humidity
57452;BME280;54295;51.224;-0.164;2022-09-09T00:02:15;99523.33;;;19.44;55.50
57452;BME280;54295;51.224;-0.164;2022-09-09T00:04:53;99516.81;;;19.20;55.37
57452;BME280;54295;51.224;-0.164;2022-09-09T00:07:34;99517.45;;;19.19;55.36
57452;BME280;54295;51.224;-0.164;2022-09-09T00:10:13;99512.25;;;19.18;55.11
57452;BME280;54295;51.224;-0.164;2022-09-09T00:12:50;99513.62;;;18.99;54.78
57452;BME280;54295;51.224;-0.164;2022-09-09T00:15:23;99516.29;;;19.13;55.12
57452;BME280;54295;51.224;-0.164;2022-09-09T00:17:56;99512.20;;;19.08;54.93
57452;BME280;54295;51.224;-0.164;2022-09-09T00:20:29;99512.71;;;19.13;55.25
57452;BME280;54295;51.224;-0.164;2022-09-09T00:23:11;99517.45;;;18.78;55.39
57452;BME280;54295;51.224;-0.164;2022-09-09T00:25:44;99518.20;;;18.46;55.23
57452;BME280;54295;51.224;-0.164;2022-09-09T00:28:19;99513.70;;;18.78;55.22
57452;BME280;54295;51.224;-0.164;2022-09-09T00:30:47;99515.62;;;18.90;55.85
57452;BME280;54295;51.224;-0.164;2022-09-09T00:33:16;99515.19;;;19.10;55.66
57452;BME280;54295;51.224;-0.164;2022-09-09T00:35:46;99514.63;;;19.08;55.84
57452;BME280;54295;51.224;-0.164;2022-09-09T00:38:16;99515.32;;;18.97;55.40
57452;BME280;54295;51.224;-0.164;2022-09-09T00:40:49;99513.84;;;19.25;55.28
57452;BME280;54295;51.224;-0.164;2022-09-09T00:43:26;99511.71;;;19.27;55.22
57452;BME280;54295;51.224;-0.164;2022-09-09T00:46:05;99511.42;;;19.31;55.18
57452;BME280;54295;51.224;-0.164;2022-09-09T00:48:43;99512.63;;;19.25;55.39
57452;BME280;54295;51.224;-0.164;2022-09-09T00:51:20;99505.20;;;19.33;55.70
57452;BME280;54295;51.224;-0.164;2022-09-09T00:54:06;99500.95;;;19.24;55.39
57452;BME280;54295;51.224;-0.164;2022-09-09T00:56:44;99500.23;;;19.26;55.71
57452;BME280;54295;51.224;-0.164;2022-09-09T00:59:24;99495.94;;;19.14;55.33
57452;BME280;54295;51.224;-0.164;2022-09-09T01:01:54;99495.43;;;18.98;55.43
57452;BME280;54295;51.224;-0.164;2022-09-09T01:04:25;99496.00;;;19.52;54.67
57452;BME280;54295;51.224;-0.164;2022-09-09T01:07:01;99491.67;;;19.36;55.09
57452;BME280;54295;51.224;-0.164;2022-09-09T01:09:33;99492.60;;;19.05;55.00
57452;BME280;54295;51.224;-0.164;2022-09-09T01:12:11;99487.66;;;18.91;54.75
57452;BME280;54295;51.224;-0.164;2022-09-09T01:14:44;99491.17;;;18.85;54.94
57452;BME280;54295;51.224;-0.164;2022-09-09T01:17:17;99487.71;;;18.92;54.91
57452;BME280;54295;51.224;-0.164;2022-09-09T01:19:56;99484.99;;;19.26;54.70
57452;BME280;54295;51.224;-0.164;2022-09-09T01:22:34;99484.62;;;19.03;54.68
57452;BME280;54295;51.224;-0.164;2022-09-09T01:25:15;99489.75;;;19.00;54.80
57452;BME280;54295;51.224;-0.164;2022-09-09T01:27:46;99494.26;;;19.03;54.68
57452;BME280;54295;51.224;-0.164;2022-09-09T01:30:16;99495.46;;;19.20;54.97
57452;BME280;54295;51.224;-0.164;2022-09-09T01:32:45;99494.24;;;19.21;54.93
57452;BME280;54295;51.224;-0.164;2022-09-09T01:35:22;99494.13;;;19.22;55.04
57452;BME280;54295;51.224;-0.164;2022-09-09T01:37:53;99492.40;;;19.19;55.00
57452;BME280;54295;51.224;-0.164;2022-09-09T01:40:20;99489.19;;;18.84;54.90
57452;BME280;54295;51.224;-0.164;2022-09-09T01:42:47;99488.88;;;18.80;55.00
57452;BME280;54295;51.224;-0.164;2022-09-09T01:45:14;99490.49;;;19.07;55.09
57452;BME280;54295;51.224;-0.164;2022-09-09T01:47:42;99490.27;;;18.79;55.11
57452;BME280;54295;51.224;-0.164;2022-09-09T01:50:10;99489.95;;;18.83;55.72
57452;BME280;54295;51.224;-0.164;2022-09-09T01:52:38;99490.07;;;18.76;55.89
57452;BME280;54295;51.224;-0.164;2022-09-09T01:55:07;99488.27;;;19.22;54.95
57452;BME280;54295;51.224;-0.164;2022-09-09T01:57:39;99483.18;;;19.06;54.94
57452;BME280;54295;51.224;-0.164;2022-09-09T02:00:11;99481.55;;;18.67;55.32
57452;BME280;54295;51.224;-0.164;2022-09-09T02:02:46;99482.64;;;18.68;55.18
57452;BME280;54295;51.224;-0.164;2022-09-09T02:05:27;99481.65;;;18.52;54.83
57452;BME280;54295;51.224;-0.164;2022-09-09T02:07:59;99485.05;;;18.37;55.88
57452;BME280;54295;51.224;-0.164;2022-09-09T02:10:30;99485.76;;;18.23;55.65
57452;BME280;54295;51.224;-0.164;2022-09-09T02:13:03;99489.99;;;18.50;55.67
57452;BME280;54295;51.224;-0.164;2022-09-09T02:15:39;99488.85;;;18.44;55.92
57452;BME280;54295;51.224;-0.164;2022-09-09T02:18:10;99491.82;;;18.49;56.08
57452;BME280;54295;51.224;-0.164;2022-09-09T02:20:39;99491.28;;;18.37;56.04
57452;BME280;54295;51.224;-0.164;2022-09-09T02:23:08;99488.83;;;18.43;56.23
57452;BME280;54295;51.224;-0.164;2022-09-09T02:25:37;99491.31;;;18.32;55.80
57452;BME280;54295;51.224;-0.164;2022-09-09T02:28:05;99491.74;;;18.83;55.25
57452;BME280;54295;51.224;-0.164;2022-09-09T02:30:34;99492.02;;;18.82;55.21
57452;BME280;54295;51.224;-0.164;2022-09-09T02:33:05;99488.67;;;18.76;55.26
57452;BME280;54295;51.224;-0.164;2022-09-09T02:35:34;99491.04;;;18.22;55.77
57452;BME280;54295;51.224;-0.164;2022-09-09T02:38:05;99491.51;;;18.24;56.12
57452;BME280;54295;51.224;-0.164;2022-09-09T02:40:34;99494.51;;;18.53;55.63
57452;BME280;54295;51.224;-0.164;2022-09-09T02:43:01;99497.71;;;18.38;55.99
57452;BME280;54295;51.224;-0.164;2022-09-09T02:45:34;99500.75;;;17.84;56.84
57452;BME280;54295;51.224;-0.164;2022-09-09T02:48:09;99498.65;;;17.43;57.68
57452;BME280;54295;51.224;-0.164;2022-09-09T02:50:45;99500.36;;;18.10;56.60
57452;BME280;54295;51.224;-0.164;2022-09-09T02:53:18;99496.07;;;18.45;55.95
57452;BME280;54295;51.224;-0.164;2022-09-09T02:55:50;99496.79;;;17.61;57.35
57452;BME280;54295;51.224;-0.164;2022-09-09T02:58:18;99499.53;;;17.74;57.50
57452;BME280;54295;51.224;-0.164;2022-09-09T03:00:47;99507.18;;;17.24;59.57
57452;BME280;54295;51.224;-0.164;2022-09-09T03:03:16;99505.84;;;16.52;60.15
57452;BME280;54295;51.224;-0.164;2022-09-09T03:05:44;99512.43;;;17.17;59.47
57452;BME280;54295;51.224;-0.164;2022-09-09T03:08:12;99512.15;;;16.87;59.18
57452;BME280;54295;51.224;-0.164;2022-09-09T03:10:39;99510.42;;;17.22;59.59
57452;BME280;54295;51.224;-0.164;2022-09-09T03:13:06;99511.27;;;17.29;58.88
57452;BME280;54295;51.224;-0.164;2022-09-09T03:15:34;99510.03;;;17.01;58.82
57452;BME280;54295;51.224;-0.164;2022-09-09T03:18:01;99513.07;;;17.42;58.57
57452;BME280;54295;51.224;-0.164;2022-09-09T03:20:30;99518.05;;;17.26;58.83
57452;BME280;54295;51.224;-0.164;2022-09-09T03:22:58;99518.03;;;17.12;58.78
57452;BME280;54295;51.224;-0.164;2022-09-09T03:25:26;99513.37;;;17.30;58.99
57452;BME280;54295;51.224;-0.164;2022-09-09T03:27:54;99515.54;;;17.54;58.64
57452;BME280;54295;51.224;-0.164;2022-09-09T03:30:22;99514.76;;;17.38;59.19
57452;BME280;54295;51.224;-0.164;2022-09-09T03:32:50;99512.29;;;16.82;60.00
57452;BME280;54295;51.224;-0.164;2022-09-09T03:35:17;99512.68;;;17.19;59.11
57452;BME280;54295;51.224;-0.164;2022-09-09T03:37:44;99508.48;;;17.36;58.83
57452;BME280;54295;51.224;-0.164;2022-09-09T03:40:11;99516.03;;;17.66;58.58
57452;BME280;54295;51.224;-0.164;2022-09-09T03:42:39;99520.80;;;17.62;58.78
57452;BME280;54295;51.224;-0.164;2022-09-09T03:45:09;99519.55;;;17.64;57.84
57452;BME280;54295;51.224;-0.164;2022-09-09T03:47:37;99521.19;;;17.74;58.03
57452;BME280;54295;51.224;-0.164;2022-09-09T03:50:04;99522.44;;;18.00;57.77
57452;BME280;54295;51.224;-0.164;2022-09-09T03:52:33;99523.66;;;17.97;57.36
57452;BME280;54295;51.224;-0.164;2022-09-09T03:55:00;99530.49;;;17.36;58.28
57452;BME280;54295;51.224;-0.164;2022-09-09T03:57:27;99532.90;;;18.18;57.78
57452;BME280;54295;51.224;-0.164;2022-09-09T03:59:55;99536.03;;;17.18;58.53
57452;BME280;54295;51.224;-0.164;2022-09-09T04:02:22;99538.35;;;17.62;57.84
57452;BME280;54295;51.224;-0.164;2022-09-09T04:04:49;99542.69;;;17.15;58.81
57452;BME280;54295;51.224;-0.164;2022-09-09T04:07:16;99549.08;;;17.34;59.03
57452;BME280;54295;51.224;-0.164;2022-09-09T04:09:43;99552.08;;;17.82;58.68
57452;BME280;54295;51.224;-0.164;2022-09-09T04:12:10;99554.42;;;17.29;58.56
57452;BME280;54295;51.224;-0.164;2022-09-09T04:14:37;99555.79;;;17.56;58.68
57452;BME280;54295;51.224;-0.164;2022-09-09T04:17:04;99558.63;;;17.79;57.69
57452;BME280;54295;51.224;-0.164;2022-09-09T04:19:31;99557.14;;;17.79;58.04
57452;BME280;54295;51.224;-0.164;2022-09-09T04:21:58;99557.04;;;17.43;58.67
57452;BME280;54295;51.224;-0.164;2022-09-09T04:24:25;99559.10;;;16.90;60.20
57452;BME280;54295;51.224;-0.164;2022-09-09T04:26:52;99564.64;;;15.99;62.73
57452;BME280;54295;51.224;-0.164;2022-09-09T04:29:19;99566.23;;;14.87;65.13
57452;BME280;54295;51.224;-0.164;2022-09-09T04:31:47;99565.52;;;16.21;61.67
57452;BME280;54295;51.224;-0.164;2022-09-09T04:34:14;99567.26;;;16.53;61.33
57452;BME280;54295;51.224;-0.164;2022-09-09T04:36:41;99571.02;;;17.03;60.20
57452;BME280;54295;51.224;-0.164;2022-09-09T04:39:08;99571.51;;;16.68;61.01
57452;BME280;54295;51.224;-0.164;2022-09-09T04:41:35;99577.41;;;16.02;62.74
57452;BME280;54295;51.224;-0.164;2022-09-09T04:44:02;99579.03;;;16.53;61.92
57452;BME280;54295;51.224;-0.164;2022-09-09T04:46:29;99577.62;;;16.30;62.76
57452;BME280;54295;51.224;-0.164;2022-09-09T04:48:56;99580.89;;;15.78;63.96
57452;BME280;54295;51.224;-0.164;2022-09-09T04:51:23;99579.46;;;15.98;63.10
57452;BME280;54295;51.224;-0.164;2022-09-09T04:53:51;99578.92;;;16.37;61.90
57452;BME280;54295;51.224;-0.164;2022-09-09T04:56:18;99581.67;;;16.15;62.11
57452;BME280;54295;51.224;-0.164;2022-09-09T04:58:45;99582.32;;;16.00;62.84
57452;BME280;54295;51.224;-0.164;2022-09-09T05:01:14;99586.03;;;15.72;63.01
57452;BME280;54295;51.224;-0.164;2022-09-09T05:03:41;99587.98;;;15.85;62.61
57452;BME280;54295;51.224;-0.164;2022-09-09T05:06:10;99587.80;;;16.71;61.17
57452;BME280;54295;51.224;-0.164;2022-09-09T05:08:37;99591.60;;;16.17;62.34
57452;BME280;54295;51.224;-0.164;2022-09-09T05:11:14;99594.26;;;16.59;61.81
57452;BME280;54295;51.224;-0.164;2022-09-09T05:13:41;99597.63;;;16.56;61.80
57452;BME280;54295;51.224;-0.164;2022-09-09T05:16:08;99600.64;;;16.51;61.89
57452;BME280;54295;51.224;-0.164;2022-09-09T05:18:35;99606.47;;;15.55;64.04
57452;BME280;54295;51.224;-0.164;2022-09-09T05:21:02;99606.64;;;16.08;64.19
57452;BME280;54295;51.224;-0.164;2022-09-09T05:23:29;99605.79;;;15.88;64.54
57452;BME280;54295;51.224;-0.164;2022-09-09T05:25:57;99611.76;;;15.53;65.17
57452;BME280;54295;51.224;-0.164;2022-09-09T05:28:25;99611.74;;;15.03;66.56
57452;BME280;54295;51.224;-0.164;2022-09-09T05:30:57;99610.49;;;14.71;68.07
57452;BME280;54295;51.224;-0.164;2022-09-09T05:33:24;99608.29;;;14.48;68.68
57452;BME280;54295;51.224;-0.164;2022-09-09T05:35:56;99609.65;;;14.68;69.16
57452;BME280;54295;51.224;-0.164;2022-09-09T05:38:24;99611.48;;;14.62;68.54
57452;BME280;54295;51.224;-0.164;2022-09-09T05:40:51;99619.01;;;15.53;65.69
57452;BME280;54295;51.224;-0.164;2022-09-09T05:43:18;99621.43;;;15.26;66.21
57452;BME280;54295;51.224;-0.164;2022-09-09T05:45:45;99627.86;;;16.02;64.73
57452;BME280;54295;51.224;-0.164;2022-09-09T05:48:13;99629.89;;;15.80;64.00
57452;BME280;54295;51.224;-0.164;2022-09-09T05:50:40;99632.97;;;15.78;64.12
57452;BME280;54295;51.224;-0.164;2022-09-09T05:53:07;99636.20;;;15.98;64.42
57452;BME280;54295;51.224;-0.164;2022-09-09T05:55:33;99637.61;;;15.75;64.30
57452;BME280;54295;51.224;-0.164;2022-09-09T05:58:01;99639.50;;;15.60;64.47
57452;BME280;54295;51.224;-0.164;2022-09-09T06:00:28;99641.13;;;15.21;65.04
57452;BME280;54295;51.224;-0.164;2022-09-09T06:02:55;99645.61;;;15.97;63.74
57452;BME280;54295;51.224;-0.164;2022-09-09T06:05:22;99638.30;;;15.14;66.16
57452;BME280;54295;51.224;-0.164;2022-09-09T06:07:52;99644.05;;;15.53;65.08
57452;BME280;54295;51.224;-0.164;2022-09-09T06:10:19;99643.72;;;15.34;65.32
57452;BME280;54295;51.224;-0.164;2022-09-09T06:12:46;99647.84;;;15.26;65.62
57452;BME280;54295;51.224;-0.164;2022-09-09T06:15:13;99651.02;;;15.25;65.78
57452;BME280;54295;51.224;-0.164;2022-09-09T06:17:40;99654.46;;;14.99;66.44
57452;BME280;54295;51.224;-0.164;2022-09-09T06:20:08;99655.87;;;15.19;66.53
57452;BME280;54295;51.224;-0.164;2022-09-09T06:22:35;99658.41;;;15.50;65.50
57452;BME280;54295;51.224;-0.164;2022-09-09T06:25:03;99663.75;;;15.82;64.27
57452;BME280;54295;51.224;-0.164;2022-09-09T06:27:30;99667.35;;;15.87;64.05
57452;BME280;54295;51.224;-0.164;2022-09-09T06:29:57;99666.97;;;15.88;63.92
57452;BME280;54295;51.224;-0.164;2022-09-09T06:32:24;99670.41;;;16.41;62.75
57452;BME280;54295;51.224;-0.164;2022-09-09T06:34:52;99669.36;;;16.26;62.65
57452;BME280;54295;51.224;-0.164;2022-09-09T06:37:19;99672.62;;;16.68;61.99
57452;BME280;54295;51.224;-0.164;2022-09-09T06:39:46;99676.30;;;15.81;63.71
57452;BME280;54295;51.224;-0.164;2022-09-09T06:42:13;99678.11;;;16.23;62.38
57452;BME280;54295;51.224;-0.164;2022-09-09T06:44:40;99683.30;;;15.91;63.28
57452;BME280;54295;51.224;-0.164;2022-09-09T06:47:07;99685.82;;;15.93;63.58
57452;BME280;54295;51.224;-0.164;2022-09-09T06:49:34;99689.12;;;16.09;63.18
57452;BME280;54295;51.224;-0.164;2022-09-09T06:52:01;99688.44;;;16.81;61.79
57452;BME280;54295;51.224;-0.164;2022-09-09T06:54:28;99693.09;;;16.31;62.51
57452;BME280;54295;51.224;-0.164;2022-09-09T06:56:55;99694.48;;;16.70;61.83
57452;BME280;54295;51.224;-0.164;2022-09-09T06:59:22;99698.48;;;16.72;61.64
57452;BME280;54295;51.224;-0.164;2022-09-09T07:01:49;99702.00;;;16.26;63.26
57452;BME280;54295;51.224;-0.164;2022-09-09T07:04:16;99698.95;;;15.67;64.51
57452;BME280;54295;51.224;-0.164;2022-09-09T07:06:45;99705.84;;;16.14;63.93
57452;BME280;54295;51.224;-0.164;2022-09-09T07:09:14;99710.21;;;16.07;62.77
57452;BME280;54295;51.224;-0.164;2022-09-09T07:11:43;99715.33;;;16.19;63.09
57452;BME280;54295;51.224;-0.164;2022-09-09T07:14:11;99721.22;;;15.70;63.78
57452;BME280;54295;51.224;-0.164;2022-09-09T07:16:39;99720.91;;;15.32;64.83
57452;BME280;54295;51.224;-0.164;2022-09-09T07:19:06;99722.82;;;15.52;65.16
57452;BME280;54295;51.224;-0.164;2022-09-09T07:21:33;99722.68;;;15.56;65.23
57452;BME280;54295;51.224;-0.164;2022-09-09T07:24:01;99732.42;;;16.85;62.25
57452;BME280;54295;51.224;-0.164;2022-09-09T07:26:30;99731.85;;;16.30;62.63
57452;BME280;54295;51.224;-0.164;2022-09-09T07:28:57;99728.86;;;16.10;63.23
57452;BME280;54295;51.224;-0.164;2022-09-09T07:31:26;99734.59;;;16.36;62.51
57452;BME280;54295;51.224;-0.164;2022-09-09T07:33:53;99738.83;;;16.46;62.53
57452;BME280;54295;51.224;-0.164;2022-09-09T07:36:22;99744.03;;;17.25;61.71
57452;BME280;54295;51.224;-0.164;2022-09-09T07:38:51;99748.11;;;17.38;60.58
57452;BME280;54295;51.224;-0.164;2022-09-09T07:41:21;99752.21;;;16.84;61.07
57452;BME280;54295;51.224;-0.164;2022-09-09T07:43:49;99752.84;;;16.97;61.54
57452;BME280;54295;51.224;-0.164;2022-09-09T07:46:18;99752.49;;;17.22;59.95
57452;BME280;54295;51.224;-0.164;2022-09-09T07:48:46;99758.22;;;16.56;61.53
57452;BME280;54295;51.224;-0.164;2022-09-09T07:51:15;99760.27;;;17.00;60.81
57452;BME280;54295;51.224;-0.164;2022-09-09T07:53:43;99760.62;;;16.19;62.68
57452;BME280;54295;51.224;-0.164;2022-09-09T07:56:13;99763.45;;;16.19;62.47
57452;BME280;54295;51.224;-0.164;2022-09-09T07:58:41;99771.28;;;16.61;61.65
57452;BME280;54295;51.224;-0.164;2022-09-09T08:01:10;99776.82;;;16.89;61.14
57452;BME280;54295;51.224;-0.164;2022-09-09T08:03:38;99778.44;;;16.21;61.12
57452;BME280;54295;51.224;-0.164;2022-09-09T08:06:08;99792.56;;;16.43;60.36
57452;BME280;54295;51.224;-0.164;2022-09-09T08:08:36;99795.23;;;17.01;59.72
57452;BME280;54295;51.224;-0.164;2022-09-09T08:11:05;99792.65;;;17.12;59.14
57452;BME280;54295;51.224;-0.164;2022-09-09T08:13:33;99795.14;;;17.01;58.53
57452;BME280;54295;51.224;-0.164;2022-09-09T08:16:06;99800.61;;;16.81;59.27
57452;BME280;54295;51.224;-0.164;2022-09-09T08:18:34;99802.15;;;15.63;61.67
57452;BME280;54295;51.224;-0.164;2022-09-09T08:21:10;99801.48;;;16.06;61.62
57452;BME280;54295;51.224;-0.164;2022-09-09T08:23:39;99803.70;;;16.31;60.92
57452;BME280;54295;51.224;-0.164;2022-09-09T08:26:11;99807.75;;;15.72;62.29
57452;BME280;54295;51.224;-0.164;2022-09-09T08:28:38;99809.19;;;16.29;62.05
57452;BME280;54295;51.224;-0.164;2022-09-09T08:31:07;99813.89;;;16.51;61.27
57452;BME280;54295;51.224;-0.164;2022-09-09T08:33:34;99822.60;;;16.71;60.35
57452;BME280;54295;51.224;-0.164;2022-09-09T08:36:01;99824.23;;;16.27;61.70
57452;BME280;54295;51.224;-0.164;2022-09-09T08:38:28;99827.08;;;16.69;60.74
57452;BME280;54295;51.224;-0.164;2022-09-09T08:41:01;99831.29;;;16.69;60.62
57452;BME280;54295;51.224;-0.164;2022-09-09T08:43:31;99834.43;;;17.32;59.08
57452;BME280;54295;51.224;-0.164;2022-09-09T08:46:03;99840.84;;;17.00;59.49
57452;BME280;54295;51.224;-0.164;2022-09-09T08:48:46;99841.74;;;17.14;59.11
57452;BME280;54295;51.224;-0.164;2022-09-09T08:51:15;99843.52;;;16.25;59.69
57452;BME280;54295;51.224;-0.164;2022-09-09T08:53:45;99849.03;;;16.61;60.02
57452;BME280;54295;51.224;-0.164;2022-09-09T08:56:18;99849.71;;;16.68;59.65
57452;BME280;54295;51.224;-0.164;2022-09-09T08:58:48;99850.56;;;15.59;61.05
57452;BME280;54295;51.224;-0.164;2022-09-09T09:01:26;99854.86;;;16.98;59.63
57452;BME280;54295;51.224;-0.164;2022-09-09T09:04:02;99861.57;;;16.53;59.78
57452;BME280;54295;51.224;-0.164;2022-09-09T09:06:42;99867.08;;;17.10;58.26
57452;BME280;54295;51.224;-0.164;2022-09-09T09:09:16;99866.68;;;16.84;59.61
57452;BME280;54295;51.224;-0.164;2022-09-09T09:11:48;99872.58;;;17.55;57.95
57452;BME280;54295;51.224;-0.164;2022-09-09T09:14:19;99873.54;;;17.39;57.64
57452;BME280;54295;51.224;-0.164;2022-09-09T09:16:51;99877.03;;;17.33;57.91
57452;BME280;54295;51.224;-0.164;2022-09-09T09:19:20;99879.58;;;17.60;58.28
57452;BME280;54295;51.224;-0.164;2022-09-09T09:21:50;99882.23;;;16.56;60.27
57452;BME280;54295;51.224;-0.164;2022-09-09T09:24:23;99887.29;;;17.03;59.31
57452;BME280;54295;51.224;-0.164;2022-09-09T09:26:54;99887.37;;;16.54;60.06
57452;BME280;54295;51.224;-0.164;2022-09-09T09:29:23;99893.28;;;16.76;59.68
57452;BME280;54295;51.224;-0.164;2022-09-09T09:31:54;99896.01;;;17.65;58.52
57452;BME280;54295;51.224;-0.164;2022-09-09T09:34:22;99896.10;;;17.63;57.84
57452;BME280;54295;51.224;-0.164;2022-09-09T09:36:54;99900.35;;;17.37;59.02
57452;BME280;54295;51.224;-0.164;2022-09-09T09:39:24;99904.33;;;18.35;56.77
57452;BME280;54295;51.224;-0.164;2022-09-09T09:41:52;99906.95;;;18.08;56.17
57452;BME280;54295;51.224;-0.164;2022-09-09T09:44:23;99909.23;;;18.11;57.02
57452;BME280;54295;51.224;-0.164;2022-09-09T09:46:52;99914.41;;;17.73;57.67
57452;BME280;54295;51.224;-0.164;2022-09-09T09:49:19;99915.82;;;18.21;57.33
57452;BME280;54295;51.224;-0.164;2022-09-09T09:51:47;99918.75;;;18.39;57.36
57452;BME280;54295;51.224;-0.164;2022-09-09T09:54:20;99919.05;;;18.14;57.40
57452;BME280;54295;51.224;-0.164;2022-09-09T09:56:49;99923.96;;;17.27;59.06
57452;BME280;54295;51.224;-0.164;2022-09-09T09:59:23;99926.68;;;17.70;58.27
57452;BME280;54295;51.224;-0.164;2022-09-09T10:01:50;99930.30;;;18.72;56.41
57452;BME280;54295;51.224;-0.164;2022-09-09T10:04:19;99929.32;;;18.56;56.76
57452;BME280;54295;51.224;-0.164;2022-09-09T10:06:47;99929.99;;;18.47;56.70
57452;BME280;54295;51.224;-0.164;2022-09-09T10:09:23;99929.29;;;18.76;56.14
57452;BME280;54295;51.224;-0.164;2022-09-09T10:11:57;99939.39;;;18.27;56.24
57452;BME280;54295;51.224;-0.164;2022-09-09T10:14:31;99938.48;;;18.42;55.93
57452;BME280;54295;51.224;-0.164;2022-09-09T10:17:12;99942.48;;;18.34;56.79
57452;BME280;54295;51.224;-0.164;2022-09-09T10:19:44;99942.20;;;18.39;56.71
57452;BME280;54295;51.224;-0.164;2022-09-09T10:22:25;99939.28;;;17.93;56.72
57452;BME280;54295;51.224;-0.164;2022-09-09T10:25:03;99939.38;;;18.26;57.03
57452;BME280;54295;51.224;-0.164;2022-09-09T10:27:37;99936.47;;;18.57;56.50
57452;BME280;54295;51.224;-0.164;2022-09-09T10:30:13;99936.37;;;18.02;56.88
57452;BME280;54295;51.224;-0.164;2022-09-09T10:32:48;99943.17;;;18.03;58.12
57452;BME280;54295;51.224;-0.164;2022-09-09T10:35:25;99939.56;;;18.76;56.40
57452;BME280;54295;51.224;-0.164;2022-09-09T10:38:08;99947.27;;;18.29;55.40
57452;BME280;54295;51.224;-0.164;2022-09-09T10:40:41;99948.56;;;18.31;55.29
57452;BME280;54295;51.224;-0.164;2022-09-09T10:43:16;99950.96;;;18.87;55.06
57452;BME280;54295;51.224;-0.164;2022-09-09T10:45:55;99943.72;;;19.51;54.14
57452;BME280;54295;51.224;-0.164;2022-09-09T10:48:31;99951.16;;;19.25;53.99
57452;BME280;54295;51.224;-0.164;2022-09-09T10:51:15;99955.99;;;18.08;56.32
57452;BME280;54295;51.224;-0.164;2022-09-09T10:53:53;99955.61;;;18.45;57.28
57452;BME280;54295;51.224;-0.164;2022-09-09T10:56:24;99954.42;;;17.22;60.09
57452;BME280;54295;51.224;-0.164;2022-09-09T10:58:58;99960.20;;;17.78;58.69
57452;BME280;54295;51.224;-0.164;2022-09-09T11:01:31;99957.46;;;17.25;60.18
57452;BME280;54295;51.224;-0.164;2022-09-09T11:04:04;99958.98;;;17.40;60.39
57452;BME280;54295;51.224;-0.164;2022-09-09T11:06:39;99960.98;;;17.47;60.33
57452;BME280;54295;51.224;-0.164;2022-09-09T11:09:15;99962.10;;;17.24;61.47
57452;BME280;54295;51.224;-0.164;2022-09-09T11:11:47;99966.27;;;17.28;61.16
57452;BME280;54295;51.224;-0.164;2022-09-09T11:14:22;99972.33;;;17.80;60.45
57452;BME280;54295;51.224;-0.164;2022-09-09T11:16:57;99977.13;;;18.18;60.15
57452;BME280;54295;51.224;-0.164;2022-09-09T11:19:30;99974.24;;;18.39;59.22
57452;BME280;54295;51.224;-0.164;2022-09-09T11:22:01;99980.36;;;18.41;59.22
57452;BME280;54295;51.224;-0.164;2022-09-09T11:24:34;99983.09;;;18.56;59.38
57452;BME280;54295;51.224;-0.164;2022-09-09T11:27:08;99985.37;;;18.68;58.60
57452;BME280;54295;51.224;-0.164;2022-09-09T11:29:53;99986.13;;;18.21;58.61
57452;BME280;54295;51.224;-0.164;2022-09-09T11:32:34;99979.69;;;18.04;60.12
57452;BME280;54295;51.224;-0.164;2022-09-09T11:35:24;99987.30;;;18.10;59.50
57452;BME280;54295;51.224;-0.164;2022-09-09T11:38:12;99984.21;;;18.09;59.83
57452;BME280;54295;51.224;-0.164;2022-09-09T11:40:41;99985.32;;;17.89;59.04
57452;BME280;54295;51.224;-0.164;2022-09-09T11:43:11;99986.48;;;17.95;59.30
57452;BME280;54295;51.224;-0.164;2022-09-09T11:45:40;99985.41;;;18.01;59.16
57452;BME280;54295;51.224;-0.164;2022-09-09T11:48:23;99985.57;;;18.72;59.06
57452;BME280;54295;51.224;-0.164;2022-09-09T11:50:58;99987.29;;;18.50;59.82
57452;BME280;54295;51.224;-0.164;2022-09-09T11:53:26;99987.28;;;19.34;57.02
57452;BME280;54295;51.224;-0.164;2022-09-09T11:56:03;99987.98;;;19.38;56.70
57452;BME280;54295;51.224;-0.164;2022-09-09T11:58:36;99988.50;;;18.96;57.55
57452;BME280;54295;51.224;-0.164;2022-09-09T12:01:37;99988.16;;;18.97;56.79
57452;BME280;54295;51.224;-0.164;2022-09-09T12:04:13;99985.30;;;19.55;56.84
57452;BME280;54295;51.224;-0.164;2022-09-09T12:06:44;99989.76;;;19.34;56.96
57452;BME280;54295;51.224;-0.164;2022-09-09T12:09:19;99991.28;;;19.30;56.13
57452;BME280;54295;51.224;-0.164;2022-09-09T12:11:48;99992.00;;;19.15;56.88
57452;BME280;54295;51.224;-0.164;2022-09-09T12:14:34;99994.00;;;18.74;57.33
57452;BME280;54295;51.224;-0.164;2022-09-09T12:17:10;99995.88;;;17.99;57.92
57452;BME280;54295;51.224;-0.164;2022-09-09T12:19:44;99994.95;;;18.45;58.59
57452;BME280;54295;51.224;-0.164;2022-09-09T12:22:19;99994.87;;;18.84;55.98
57452;BME280;54295;51.224;-0.164;2022-09-09T12:24:54;99991.72;;;18.70;56.15
57452;BME280;54295;51.224;-0.164;2022-09-09T12:27:30;99995.01;;;18.79;55.94
57452;BME280;54295;51.224;-0.164;2022-09-09T12:30:03;99991.08;;;19.58;56.14
57452;BME280;54295;51.224;-0.164;2022-09-09T12:32:30;99992.38;;;19.78;55.40
57452;BME280;54295;51.224;-0.164;2022-09-09T12:35:00;99993.94;;;19.76;52.53
57452;BME280;54295;51.224;-0.164;2022-09-09T12:37:34;99994.44;;;19.68;52.92
57452;BME280;54295;51.224;-0.164;2022-09-09T12:40:05;99996.05;;;20.21;52.42
57452;BME280;54295;51.224;-0.164;2022-09-09T12:42:32;99995.36;;;20.22;51.85
57452;BME280;54295;51.224;-0.164;2022-09-09T12:45:00;99996.41;;;20.23;52.64
57452;BME280;54295;51.224;-0.164;2022-09-09T12:47:38;99993.66;;;20.26;51.29
57452;BME280;54295;51.224;-0.164;2022-09-09T12:50:17;99995.00;;;20.68;50.74
57452;BME280;54295;51.224;-0.164;2022-09-09T12:52:46;99992.43;;;20.68;50.81
57452;BME280;54295;51.224;-0.164;2022-09-09T12:55:18;99995.64;;;19.95;51.78
57452;BME280;54295;51.224;-0.164;2022-09-09T12:57:48;99997.91;;;19.93;52.82
57452;BME280;54295;51.224;-0.164;2022-09-09T13:00:18;100004.34;;;18.81;55.30
57452;BME280;54295;51.224;-0.164;2022-09-09T13:02:47;100002.13;;;18.42;55.89
57452;BME280;54295;51.224;-0.164;2022-09-09T13:05:18;100003.97;;;18.59;55.76
57452;BME280;54295;51.224;-0.164;2022-09-09T13:07:46;100007.58;;;19.04;55.26
57452;BME280;54295;51.224;-0.164;2022-09-09T13:10:14;100005.99;;;18.52;56.27